createdAt,value
2019-06-15T00:00:41.245Z,55.32
2019-06-15T00:03:27.849Z,54.41
2019-06-15T00:06:15.681Z,54.10
2019-06-15T00:09:02.449Z,53.97
2019-06-15T00:11:50.345Z,55.68
2019-06-15T00:14:37.571Z,55.87
2019-06-15T00:17:25.300Z,56.24
2019-06-15T00:20:12.291Z,56.37
2019-06-15T00:22:59.545Z,56.39
2019-06-15T00:25:46.997Z,56.57
2019-06-15T00:28:33.886Z,56.67
2019-06-15T00:31:20.808Z,56.69
2019-06-15T00:34:22.029Z,57.03
2019-06-15T00:37:09.960Z,57.05
2019-06-15T00:40:00.264Z,57.36
2019-06-15T00:42:48.914Z,57.54
2019-06-15T00:45:35.513Z,57.82
2019-06-15T00:48:22.744Z,57.86
2019-06-15T00:51:10.763Z,58.45
2019-06-15T00:54:01.054Z,58.70
2019-06-15T00:59:57.251Z,59.30
2019-06-15T01:02:44.851Z,59.46
2019-06-15T01:05:32.149Z,59.56
2019-06-15T01:08:19.478Z,59.73
2019-06-15T01:11:07.593Z,60.34
2019-06-15T01:13:57.779Z,60.32
2019-06-15T01:16:44.389Z,60.90
2019-06-15T01:19:31.221Z,60.71
2019-06-15T01:22:18.361Z,61.67
2019-06-15T01:25:15.672Z,61.92
2019-06-15T01:28:09.689Z,61.84
2019-06-15T01:30:56.689Z,62.08
2019-06-15T01:33:44.409Z,62.34
2019-06-15T01:39:50.779Z,62.88
2019-06-15T01:42:38.595Z,63.08
2019-06-15T01:48:31.386Z,63.00
2019-06-15T01:51:25.968Z,62.85
2019-06-15T01:54:12.689Z,63.96
2019-06-15T01:56:59.488Z,64.52
2019-06-15T01:59:46.701Z,64.84
2019-06-15T02:02:34.139Z,64.92
2019-06-15T02:05:21.776Z,65.62
2019-06-15T02:08:09.262Z,65.65
2019-06-15T02:10:56.506Z,65.40
2019-06-15T02:13:44.063Z,65.88
2019-06-15T02:16:31.597Z,65.75
2019-06-15T02:19:18.776Z,65.64
2019-06-15T02:22:05.726Z,65.78
2019-06-15T02:24:53.419Z,66.02
2019-06-15T02:27:40.126Z,65.89
2019-06-15T02:30:27.340Z,66.02
2019-06-15T02:33:14.675Z,66.32
2019-06-15T02:36:02.329Z,66.77
2019-06-15T02:38:50.229Z,66.34
2019-06-15T02:41:37.542Z,66.58
2019-06-15T02:44:24.582Z,66.55
2019-06-15T02:47:12.208Z,67.24
2019-06-15T02:53:05.495Z,67.40
2019-06-15T02:55:52.103Z,67.96
2019-06-15T02:58:39.501Z,68.12
2019-06-15T03:01:26.743Z,69.04
2019-06-15T03:04:13.645Z,69.47
2019-06-15T03:07:00.462Z,69.93
2019-06-15T03:09:47.475Z,70.52
2019-06-15T03:12:34.415Z,71.00
2019-06-15T03:15:21.220Z,71.75
2019-06-15T03:18:08.369Z,71.87
2019-06-15T03:20:56.353Z,70.62
2019-06-15T03:23:43.146Z,71.09
2019-06-15T03:26:30.899Z,69.06
2019-06-15T03:29:17.718Z,69.64
2019-06-15T03:32:05.070Z,69.72
2019-06-15T03:35:00.311Z,67.73
2019-06-15T03:37:50.752Z,66.85
2019-06-15T03:40:38.286Z,68.26
2019-06-15T03:43:31.745Z,68.41
2019-06-15T03:46:19.035Z,68.26
2019-06-15T03:49:06.068Z,68.33
2019-06-15T03:51:54.936Z,68.33
2019-06-15T03:54:42.096Z,68.22
2019-06-15T03:57:30.896Z,68.36
2019-06-15T04:00:30.402Z,68.48
2019-06-15T04:03:17.729Z,68.48
2019-06-15T04:06:07.630Z,68.40
2019-06-15T04:08:55.324Z,68.39
2019-06-15T04:11:43.355Z,68.45
2019-06-15T04:14:30.827Z,68.34
2019-06-15T04:17:18.517Z,68.41
2019-06-15T04:20:06.980Z,68.67
2019-06-15T04:22:54.463Z,68.49
2019-06-15T04:25:44.244Z,68.70
2019-06-15T04:28:32.407Z,68.59
2019-06-15T04:31:19.132Z,68.48
2019-06-15T04:34:05.836Z,68.36
2019-06-15T04:36:52.739Z,68.22
2019-06-15T04:39:41.645Z,68.10
2019-06-15T04:42:35.601Z,67.86
2019-06-15T04:45:24.337Z,67.84
2019-06-15T04:48:11.780Z,67.36
2019-06-15T04:51:00.247Z,67.15
2019-06-15T04:53:46.938Z,66.94
2019-06-15T04:56:33.558Z,66.82
2019-06-15T04:59:23.427Z,66.54
2019-06-15T05:02:27.330Z,66.44
2019-06-15T05:05:11.908Z,66.34
2019-06-15T05:07:59.575Z,66.21
2019-06-15T05:10:46.740Z,62.99
2019-06-15T05:13:40.946Z,65.01
2019-06-15T05:16:28.344Z,65.37
2019-06-15T05:19:15.290Z,65.56
2019-06-15T05:22:02.539Z,62.72
2019-06-15T05:24:50.022Z,61.88
2019-06-15T05:27:36.564Z,63.98
2019-06-15T05:30:27.421Z,64.44
2019-06-15T05:33:28.675Z,64.61
2019-06-15T05:36:15.989Z,64.44
2019-06-15T05:39:03.095Z,64.52
2019-06-15T05:41:51.526Z,64.50
2019-06-15T05:44:46.009Z,64.47
2019-06-15T05:47:32.951Z,64.38
2019-06-15T05:50:20.469Z,64.15
2019-06-15T05:53:07.384Z,63.90
2019-06-15T05:55:54.294Z,63.54
2019-06-15T05:58:42.135Z,60.28
2019-06-15T06:01:35.806Z,59.50
2019-06-15T06:04:22.954Z,61.60
2019-06-15T06:07:12.012Z,62.13
2019-06-15T06:10:00.053Z,62.48
2019-06-15T06:12:47.553Z,62.70
2019-06-15T06:15:34.372Z,62.83
2019-06-15T06:18:21.463Z,59.41
2019-06-15T06:21:09.096Z,61.59
2019-06-15T06:23:56.119Z,61.79
2019-06-15T06:26:43.242Z,61.08
2019-06-15T06:29:30.778Z,61.36
2019-06-15T06:32:18.118Z,60.76
2019-06-15T06:35:04.812Z,57.04
2019-06-15T06:37:55.154Z,59.30
2019-06-15T06:40:42.127Z,59.47
2019-06-15T06:46:34.872Z,58.47
2019-06-15T06:49:36.241Z,57.95
2019-06-15T06:52:30.246Z,57.81
2019-06-15T06:55:17.204Z,56.95
2019-06-15T06:58:04.101Z,56.34
2019-06-15T07:04:11.513Z,55.96
2019-06-15T07:06:58.359Z,56.14
2019-06-15T07:09:45.244Z,56.00
2019-06-15T07:12:48.154Z,52.02
2019-06-15T07:15:34.958Z,54.51
2019-06-15T07:18:22.524Z,55.10
2019-06-15T07:21:10.298Z,55.09
2019-06-15T07:24:13.061Z,55.01
2019-06-15T07:26:59.088Z,54.78
2019-06-15T07:29:46.091Z,55.23
2019-06-15T07:32:40.015Z,55.31
2019-06-15T07:35:27.583Z,51.20
2019-06-15T07:41:36.113Z,53.20
2019-06-15T07:44:22.810Z,53.08
2019-06-15T07:56:28.066Z,52.49
2019-06-15T07:59:15.518Z,52.18
2019-06-15T08:02:02.090Z,52.16
2019-06-15T08:08:13.294Z,51.34
2019-06-15T08:14:06.408Z,46.73
2019-06-15T08:16:54.285Z,48.65
2019-06-15T08:22:48.353Z,48.99
2019-06-15T08:31:48.185Z,48.19
2019-06-15T08:34:42.167Z,48.38
2019-06-15T08:37:29.289Z,48.23
2019-06-15T08:40:16.030Z,47.66
2019-06-15T08:49:19.959Z,45.97
2019-06-15T08:52:07.507Z,45.20
2019-06-15T08:54:54.788Z,45.22
2019-06-15T08:57:41.836Z,44.51
2019-06-15T09:00:28.933Z,43.81
2019-06-15T09:03:16.275Z,43.60
2019-06-15T09:06:03.668Z,42.84
2019-06-15T09:11:57.261Z,42.34
2019-06-15T09:17:50.595Z,42.72
2019-06-15T09:20:37.205Z,42.30
2019-06-15T09:23:24.043Z,41.73
2019-06-15T09:26:14.592Z,41.21
2019-06-15T09:29:11.579Z,40.40
2019-06-15T09:31:55.343Z,39.80
2019-06-15T09:34:45.929Z,39.55
2019-06-15T09:37:36.728Z,39.88
2019-06-15T09:40:25.389Z,40.28
2019-06-15T09:43:12.289Z,35.51
2019-06-15T09:46:06.584Z,38.18
2019-06-15T09:49:00.806Z,38.51
2019-06-15T09:51:48.741Z,39.28
2019-06-15T09:54:37.723Z,39.68
2019-06-15T09:57:27.932Z,40.10
2019-06-15T10:00:14.868Z,39.77
2019-06-15T10:06:11.744Z,38.71
2019-06-15T10:08:57.056Z,39.25
2019-06-15T10:11:56.512Z,39.08
2019-06-15T10:20:55.317Z,39.40
2019-06-15T10:26:52.554Z,39.30
2019-06-15T10:29:42.839Z,39.41
2019-06-15T10:38:44.090Z,39.09
2019-06-15T10:41:31.862Z,39.49
2019-06-15T10:44:19.003Z,38.71
2019-06-15T10:47:06.257Z,38.48
2019-06-15T10:52:59.522Z,38.88
2019-06-15T11:01:57.775Z,36.93
2019-06-15T11:04:45.272Z,35.38
2019-06-15T11:11:00.360Z,35.01
2019-06-15T11:13:46.926Z,34.73
2019-06-15T11:16:33.709Z,34.79
2019-06-15T11:19:23.839Z,34.55
2019-06-15T11:22:11.221Z,34.62
2019-06-15T11:24:58.298Z,34.40
2019-06-15T11:30:52.685Z,33.38
2019-06-15T11:33:54.330Z,33.05
2019-06-15T11:36:41.037Z,33.47
2019-06-15T11:42:35.343Z,33.73
2019-06-15T11:48:28.231Z,33.09
2019-06-15T11:51:19.005Z,32.52
2019-06-15T11:54:05.977Z,32.28
2019-06-15T11:56:53.451Z,32.92
2019-06-15T11:59:40.286Z,29.65
2019-06-15T12:02:28.205Z,32.02
2019-06-15T12:05:15.430Z,32.46
2019-06-15T12:08:02.414Z,32.86
2019-06-15T12:10:49.963Z,33.11
2019-06-15T12:13:36.504Z,33.01
2019-06-15T12:19:29.081Z,30.52
2019-06-15T12:22:16.761Z,32.82
2019-06-15T12:25:03.669Z,33.46
2019-06-15T12:27:51.303Z,33.51
2019-06-15T12:30:46.502Z,33.98
2019-06-15T12:33:33.221Z,34.05
2019-06-15T12:36:21.973Z,33.97
2019-06-15T12:39:09.309Z,30.92
2019-06-15T12:41:56.100Z,33.46
2019-06-15T12:44:42.819Z,34.65
2019-06-15T12:47:30.427Z,34.63
2019-06-15T12:50:18.022Z,35.28
2019-06-15T12:53:06.016Z,35.07
2019-06-15T12:55:53.225Z,35.17
2019-06-15T12:58:40.363Z,35.06
2019-06-15T13:01:28.066Z,34.76
2019-06-15T13:04:16.320Z,34.89
2019-06-15T13:10:12.756Z,34.53
2019-06-15T13:13:03.212Z,33.89
2019-06-15T13:18:56.222Z,34.08
2019-06-15T13:21:43.320Z,31.12
2019-06-15T13:24:30.389Z,32.73
2019-06-15T13:27:17.708Z,30.62
2019-06-15T13:33:17.903Z,32.49
2019-06-15T13:36:05.804Z,33.10
2019-06-15T13:38:53.508Z,33.84
2019-06-15T13:44:46.598Z,34.33
2019-06-15T13:50:39.811Z,34.44
2019-06-15T13:53:27.485Z,31.29
2019-06-15T13:56:15.034Z,30.02
2019-06-15T13:59:02.308Z,32.12
2019-06-15T14:01:49.921Z,32.54
2019-06-15T14:04:36.760Z,32.77
2019-06-15T14:07:23.456Z,32.62
2019-06-15T14:10:17.287Z,32.84
2019-06-15T14:13:04.626Z,32.87
2019-06-15T14:15:51.563Z,32.78
2019-06-15T14:18:38.868Z,32.20
2019-06-15T14:21:25.580Z,32.15
2019-06-15T14:24:12.106Z,32.83
2019-06-15T14:26:58.765Z,32.62
2019-06-15T14:30:00.209Z,32.91
2019-06-15T14:32:47.051Z,32.67
2019-06-15T14:38:39.445Z,33.31
2019-06-15T14:41:26.328Z,33.47
2019-06-15T14:44:14.072Z,32.33
2019-06-15T14:47:04.435Z,32.17
2019-06-15T14:49:54.029Z,31.96
2019-06-15T14:52:40.925Z,31.53
2019-06-15T14:55:28.655Z,31.13
2019-06-15T14:58:17.145Z,30.58
2019-06-15T15:01:02.620Z,30.63
2019-06-15T15:03:50.135Z,30.50
2019-06-15T15:06:47.044Z,27.22
2019-06-15T15:12:36.990Z,29.68
2019-06-15T15:15:23.665Z,29.86
2019-06-15T15:18:10.682Z,27.02
2019-06-15T15:21:06.848Z,29.53
2019-06-15T15:23:51.903Z,30.06
2019-06-15T15:29:46.396Z,30.31
2019-06-15T15:32:32.910Z,30.26
2019-06-15T15:35:20.129Z,29.99
2019-06-15T15:38:07.360Z,29.03
2019-06-15T15:40:56.131Z,28.71
2019-06-15T15:43:41.072Z,28.30
2019-06-15T15:46:28.278Z,28.51
2019-06-15T15:52:26.908Z,29.20
2019-06-15T15:55:11.220Z,28.66
2019-06-15T15:58:06.793Z,28.55
2019-06-15T16:01:06.770Z,28.47
2019-06-15T16:04:01.109Z,28.97
2019-06-15T16:09:54.625Z,27.93
2019-06-15T16:12:48.732Z,28.43
2019-06-15T16:15:37.220Z,27.54
2019-06-15T16:18:24.298Z,27.31
2019-06-15T16:24:17.641Z,27.70
2019-06-15T16:27:26.356Z,23.33
2019-06-15T16:30:08.670Z,26.10
2019-06-15T16:33:04.235Z,26.48
2019-06-15T16:35:50.484Z,26.99
2019-06-15T16:38:38.508Z,23.77
2019-06-15T16:41:25.905Z,25.84
2019-06-15T16:44:12.543Z,23.15
2019-06-15T16:46:59.762Z,26.26
2019-06-15T16:49:47.294Z,27.54
2019-06-15T16:52:36.389Z,28.58
2019-06-15T16:55:22.334Z,29.36
2019-06-15T16:58:12.914Z,30.06
2019-06-15T17:00:59.514Z,29.97
2019-06-15T17:03:47.204Z,29.21
2019-06-15T17:06:33.665Z,28.06
2019-06-15T17:09:20.311Z,27.47
2019-06-15T17:12:07.303Z,27.56
2019-06-15T17:14:54.511Z,27.14
2019-06-15T17:17:41.746Z,27.11
2019-06-15T17:20:29.088Z,27.00
2019-06-15T17:23:16.500Z,27.12
2019-06-15T17:26:03.081Z,27.36
2019-06-15T17:28:50.734Z,27.48
2019-06-15T17:31:37.837Z,28.20
2019-06-15T17:34:26.180Z,29.43
2019-06-15T17:37:11.669Z,30.37
2019-06-15T17:39:58.735Z,31.24
2019-06-15T17:42:46.212Z,32.20
2019-06-15T17:45:34.070Z,33.01
2019-06-15T17:48:20.983Z,34.19
2019-06-15T17:51:11.471Z,33.97
2019-06-15T17:53:58.601Z,36.22
2019-06-15T17:56:46.209Z,37.53
2019-06-15T17:59:36.299Z,38.50
2019-06-15T18:02:21.261Z,39.16
2019-06-15T18:05:08.381Z,39.05
2019-06-15T18:08:00.840Z,40.88
2019-06-15T18:10:43.021Z,41.34
2019-06-15T18:13:30.070Z,41.15
2019-06-15T18:16:17.444Z,41.44
2019-06-15T18:19:06.807Z,43.40
2019-06-15T18:21:52.013Z,44.00
2019-06-15T18:24:39.737Z,44.60
2019-06-15T18:27:27.248Z,45.29
2019-06-15T18:30:13.721Z,46.05
2019-06-15T18:33:01.473Z,46.12
2019-06-15T18:35:48.100Z,46.43
2019-06-15T18:38:49.320Z,46.59
2019-06-15T18:44:42.665Z,47.35
2019-06-15T18:47:29.415Z,47.78
2019-06-15T18:50:17.159Z,46.65
2019-06-15T18:53:06.921Z,47.90
2019-06-15T18:55:51.920Z,47.69
2019-06-15T18:58:39.101Z,47.72
2019-06-15T19:01:27.073Z,47.67
2019-06-15T19:04:26.833Z,47.94
2019-06-15T19:07:01.396Z,46.49
2019-06-15T19:09:48.011Z,47.76
2019-06-15T19:12:35.895Z,47.76
2019-06-15T19:15:22.854Z,47.86
2019-06-15T19:18:10.523Z,47.66
2019-06-15T19:21:11.255Z,47.37
2019-06-15T19:23:58.544Z,47.22
2019-06-15T19:26:46.060Z,47.20
2019-06-15T19:29:33.026Z,47.09
2019-06-15T19:32:19.834Z,47.13
2019-06-15T19:35:07.891Z,47.20
2019-06-15T19:37:56.705Z,47.34
2019-06-15T19:40:43.195Z,47.46
2019-06-15T19:46:36.646Z,47.72
2019-06-15T19:49:25.758Z,47.93
2019-06-15T19:52:10.605Z,48.19
2019-06-15T19:54:57.737Z,48.50
2019-06-15T19:57:46.576Z,48.80
2019-06-15T20:00:38.569Z,49.42
2019-06-15T20:03:27.334Z,49.53
2019-06-15T20:06:12.670Z,49.97
2019-06-15T20:08:59.965Z,50.31
2019-06-15T20:11:47.181Z,50.92
2019-06-15T20:14:36.569Z,51.11
2019-06-15T20:17:27.804Z,51.63
2019-06-15T20:23:20.975Z,52.09
2019-06-15T20:26:07.678Z,52.24
2019-06-15T20:28:56.429Z,52.90
2019-06-15T20:31:42.000Z,52.99
2019-06-15T20:34:28.568Z,53.29
2019-06-15T20:37:16.926Z,53.46
2019-06-15T20:40:03.342Z,53.41
2019-06-15T20:42:50.253Z,54.25
2019-06-15T20:45:37.274Z,53.84
2019-06-15T20:48:31.387Z,54.68
2019-06-15T20:51:27.073Z,55.22
2019-06-15T20:54:17.936Z,55.20
2019-06-15T20:57:06.447Z,55.73
2019-06-15T20:59:51.973Z,55.85
2019-06-15T21:02:40.651Z,56.37
2019-06-15T21:05:37.249Z,56.39
2019-06-15T21:08:16.000Z,56.58
2019-06-15T21:11:01.507Z,57.09
2019-06-15T21:13:48.488Z,58.12
2019-06-15T21:16:37.044Z,57.95
2019-06-15T21:19:22.238Z,58.37
2019-06-15T21:25:17.366Z,57.90
2019-06-15T21:28:02.432Z,57.90
2019-06-15T21:30:49.461Z,58.33
2019-06-15T21:33:36.956Z,58.45
2019-06-15T21:36:25.912Z,58.62
2019-06-15T21:42:16.756Z,59.25
2019-06-15T21:45:03.646Z,59.35
2019-06-15T21:51:03.468Z,59.46
2019-06-15T21:53:50.453Z,59.72
2019-06-15T21:56:38.209Z,60.03
2019-06-15T21:59:26.106Z,60.22
2019-06-15T22:02:12.651Z,60.50
2019-06-15T22:04:59.475Z,60.40
2019-06-15T22:07:47.648Z,61.00
2019-06-15T22:10:35.951Z,61.60
2019-06-15T22:13:20.542Z,61.70
2019-06-15T22:16:07.647Z,61.68
2019-06-15T22:18:54.969Z,61.65
2019-06-15T22:21:43.916Z,61.77
2019-06-15T22:24:30.632Z,61.91
2019-06-15T22:27:17.590Z,62.24
2019-06-15T22:30:07.938Z,62.61
2019-06-15T22:32:56.231Z,62.78
2019-06-15T22:35:42.460Z,62.73
2019-06-15T22:38:29.379Z,62.65
2019-06-15T22:41:17.883Z,62.87
2019-06-15T22:47:12.436Z,62.95
2019-06-15T22:53:09.236Z,63.16
2019-06-15T22:55:58.259Z,63.33
2019-06-15T23:04:56.735Z,64.45
2019-06-15T23:07:47.308Z,64.15
2019-06-15T23:10:36.669Z,63.74
2019-06-15T23:13:21.430Z,63.67
2019-06-15T23:16:08.813Z,63.66
2019-06-15T23:18:57.241Z,64.52
2019-06-15T23:25:05.905Z,64.29
2019-06-15T23:30:57.581Z,64.70
2019-06-15T23:33:46.735Z,64.39
2019-06-15T23:36:52.480Z,65.37
2019-06-15T23:39:22.841Z,64.46
2019-06-15T23:45:18.681Z,65.24
2019-06-15T23:48:08.346Z,65.35
2019-06-15T23:50:56.903Z,65.58
2019-06-15T23:53:42.903Z,64.40
2019-06-15T23:56:30.037Z,63.86
2019-06-15T23:59:18.879Z,63.57
